createdAt,value
2023-05-05T00:00:49.730Z,3.78
2023-05-05T00:02:51.638Z,3.30
2023-05-05T00:04:53.528Z,3.03
2023-05-05T00:06:55.403Z,3.07
2023-05-05T00:08:57.248Z,3.25
2023-05-05T00:10:59.216Z,2.95
2023-05-05T00:13:01.071Z,3.25
2023-05-05T00:15:03.546Z,2.95
2023-05-05T00:17:05.659Z,2.88
2023-05-05T00:19:07.503Z,3.13
2023-05-05T00:21:09.391Z,2.93
2023-05-05T00:23:11.207Z,3.25
2023-05-05T00:25:13.035Z,3.67
2023-05-05T00:27:14.906Z,3.37
2023-05-05T00:29:16.808Z,3.17
2023-05-05T00:31:18.683Z,3.95
2023-05-05T00:33:20.732Z,3.30
2023-05-05T00:35:22.653Z,3.38
2023-05-05T00:37:24.459Z,3.53
2023-05-05T00:39:26.309Z,3.13
2023-05-05T00:41:28.168Z,3.60
2023-05-05T00:43:30.006Z,3.17
2023-05-05T00:45:32.143Z,3.07
2023-05-05T00:47:34.043Z,4.00
2023-05-05T00:49:36.424Z,4.05
2023-05-05T00:51:38.260Z,3.40
2023-05-05T00:53:43.077Z,3.50
2023-05-05T00:55:44.920Z,3.40
2023-05-05T00:57:46.827Z,3.87
2023-05-05T00:59:48.949Z,3.55
2023-05-05T01:01:50.958Z,4.32
2023-05-05T01:03:52.996Z,4.03
2023-05-05T01:06:03.733Z,4.45
2023-05-05T01:08:29.476Z,3.97
2023-05-05T01:10:52.265Z,3.67
2023-05-05T01:13:15.212Z,4.05
2023-05-05T01:15:37.536Z,3.25
2023-05-05T01:17:42.800Z,3.53
2023-05-05T01:19:56.664Z,3.33
2023-05-05T01:22:00.797Z,3.53
2023-05-05T01:24:23.965Z,3.50
2023-05-05T01:26:49.493Z,2.95
2023-05-05T01:28:59.947Z,3.50
2023-05-05T01:31:31.971Z,3.10
2023-05-05T01:33:36.888Z,3.38
2023-05-05T01:35:43.791Z,3.08
2023-05-05T01:38:03.711Z,3.20
2023-05-05T01:40:08.232Z,3.47
2023-05-05T01:42:14.972Z,3.05
2023-05-05T01:44:17.018Z,3.03
2023-05-05T01:46:19.212Z,3.15
2023-05-05T01:48:21.235Z,3.47
2023-05-05T01:50:23.077Z,3.40
2023-05-05T01:52:24.914Z,3.13
2023-05-05T01:54:27.206Z,3.63
2023-05-05T01:56:29.051Z,2.92
2023-05-05T01:58:31.038Z,3.17
2023-05-05T02:00:32.952Z,3.30
2023-05-05T02:02:35.053Z,3.30
2023-05-05T02:04:38.779Z,3.05
2023-05-05T02:06:40.767Z,3.33
2023-05-05T02:08:42.567Z,3.10
2023-05-05T02:10:44.378Z,3.43
2023-05-05T02:12:46.365Z,3.33
2023-05-05T02:14:48.254Z,3.30
2023-05-05T02:16:50.089Z,3.25
2023-05-05T02:18:51.907Z,2.83
2023-05-05T02:20:53.774Z,3.53
2023-05-05T02:22:55.691Z,3.28
2023-05-05T02:24:57.531Z,3.20
2023-05-05T02:26:59.399Z,3.08
2023-05-05T02:29:10.828Z,2.87
2023-05-05T02:31:12.706Z,3.60
2023-05-05T02:33:14.567Z,3.42
2023-05-05T02:35:19.791Z,3.53
2023-05-05T02:37:24.025Z,3.67
2023-05-05T02:39:31.102Z,3.13
2023-05-05T02:41:33.483Z,3.20
2023-05-05T02:43:35.613Z,3.22
2023-05-05T02:45:37.451Z,3.40
2023-05-05T02:47:39.308Z,3.20
2023-05-05T02:49:41.181Z,3.53
2023-05-05T02:51:43.001Z,3.38
2023-05-05T02:53:44.849Z,3.50
2023-05-05T02:55:52.039Z,3.37
2023-05-05T02:58:17.289Z,3.50
2023-05-05T03:00:35.968Z,3.15
2023-05-05T03:02:46.847Z,3.60
2023-05-05T03:05:22.559Z,3.25
2023-05-05T03:07:26.477Z,3.42
2023-05-05T03:09:33.442Z,3.33
2023-05-05T03:11:35.618Z,3.40
2023-05-05T03:13:37.435Z,3.55
2023-05-05T03:15:49.042Z,3.57
2023-05-05T03:17:50.883Z,3.45
2023-05-05T03:19:52.765Z,3.83
2023-05-05T03:21:54.876Z,3.03
2023-05-05T03:23:57.766Z,3.63
2023-05-05T03:25:59.582Z,3.30
2023-05-05T03:28:01.374Z,3.90
2023-05-05T03:30:03.362Z,3.57
2023-05-05T03:32:05.789Z,3.42
2023-05-05T03:34:07.992Z,3.28
2023-05-05T03:36:10.763Z,3.13
2023-05-05T03:40:14.437Z,3.50
2023-05-05T03:42:16.588Z,3.28
2023-05-05T03:44:18.413Z,3.65
2023-05-05T03:46:20.484Z,4.00
2023-05-05T03:48:22.378Z,4.05
2023-05-05T03:50:24.533Z,3.50
2023-05-05T03:52:26.429Z,3.80
2023-05-05T03:54:28.315Z,3.80
2023-05-05T03:56:30.262Z,3.15
2023-05-05T03:58:32.063Z,3.40
2023-05-05T04:00:33.946Z,3.83
2023-05-05T04:02:35.857Z,3.40
2023-05-05T04:04:37.756Z,3.78
2023-05-05T04:06:39.566Z,3.30
2023-05-05T04:08:41.506Z,4.00
2023-05-05T04:10:43.396Z,4.35
2023-05-05T04:12:45.320Z,4.00
2023-05-05T04:14:47.153Z,3.60
2023-05-05T04:16:48.979Z,3.77
2023-05-05T04:18:50.784Z,3.53
2023-05-05T04:20:52.693Z,3.80
2023-05-05T04:22:54.499Z,4.00
2023-05-05T04:24:56.320Z,3.78
2023-05-05T04:26:58.251Z,3.93
2023-05-05T04:29:00.112Z,4.32
2023-05-05T04:31:05.077Z,3.85
2023-05-05T04:33:07.118Z,3.55
2023-05-05T04:35:09.143Z,3.80
2023-05-05T04:37:10.976Z,3.63
2023-05-05T04:39:12.881Z,3.65
2023-05-05T04:41:14.726Z,4.07
2023-05-05T04:43:16.532Z,4.13
2023-05-05T04:45:18.401Z,4.07
2023-05-05T04:47:20.274Z,4.80
2023-05-05T04:49:22.179Z,4.72
2023-05-05T04:51:24.038Z,3.70
2023-05-05T04:53:25.922Z,4.50
2023-05-05T04:55:27.912Z,4.35
2023-05-05T04:57:30.156Z,4.82
2023-05-05T04:59:31.978Z,4.97
2023-05-05T05:01:34.804Z,4.13
2023-05-05T05:03:38.163Z,4.03
2023-05-05T05:05:40.054Z,4.60
2023-05-05T05:07:41.958Z,4.23
2023-05-05T05:09:43.787Z,4.68
2023-05-05T05:11:45.637Z,5.00
2023-05-05T05:13:47.622Z,4.00
2023-05-05T05:15:49.450Z,3.95
2023-05-05T05:17:51.581Z,4.00
2023-05-05T05:19:55.300Z,3.90
2023-05-05T05:21:57.196Z,3.95
2023-05-05T05:23:59.360Z,3.30
2023-05-05T05:26:01.219Z,3.30
2023-05-05T05:28:10.285Z,4.00
2023-05-05T05:30:13.009Z,3.78
2023-05-05T05:32:14.986Z,4.32
2023-05-05T05:34:16.875Z,3.88
2023-05-05T05:36:18.697Z,3.90
2023-05-05T05:38:20.521Z,3.30
2023-05-05T05:40:22.344Z,3.67
2023-05-05T05:42:24.227Z,2.80
2023-05-05T05:44:26.077Z,3.50
2023-05-05T05:46:27.943Z,3.77
2023-05-05T05:48:29.823Z,4.05
2023-05-05T05:50:31.697Z,3.23
2023-05-05T05:52:33.730Z,3.57
2023-05-05T05:54:35.753Z,3.72
2023-05-05T05:56:37.739Z,3.38
2023-05-05T05:58:39.568Z,3.63
2023-05-05T06:00:41.503Z,3.37
2023-05-05T06:02:43.427Z,3.15
2023-05-05T06:04:45.350Z,3.60
2023-05-05T06:06:47.264Z,3.60
2023-05-05T06:08:49.163Z,3.58
2023-05-05T06:10:51.078Z,3.30
2023-05-05T06:12:52.954Z,2.90
2023-05-05T06:14:54.923Z,3.47
2023-05-05T06:16:56.748Z,3.40
2023-05-05T06:18:58.590Z,3.33
2023-05-05T06:21:00.511Z,3.10
2023-05-05T06:23:02.361Z,3.20
2023-05-05T06:25:04.425Z,3.87
2023-05-05T06:27:06.252Z,3.25
2023-05-05T06:29:08.783Z,3.27
2023-05-05T06:31:13.042Z,3.60
2023-05-05T06:33:14.890Z,3.42
2023-05-05T06:35:17.000Z,4.00
2023-05-05T06:37:18.967Z,3.63
2023-05-05T06:39:20.775Z,3.80
2023-05-05T06:41:22.595Z,3.73
2023-05-05T06:43:24.464Z,3.80
2023-05-05T06:45:26.275Z,3.73
2023-05-05T06:47:28.133Z,3.97
2023-05-05T06:49:30.001Z,3.38
2023-05-05T06:51:32.140Z,3.65
2023-05-05T06:53:34.171Z,3.28
2023-05-05T06:55:36.023Z,3.40
2023-05-05T06:57:37.945Z,3.63
2023-05-05T06:59:39.753Z,3.30
2023-05-05T07:01:41.611Z,3.90
2023-05-05T07:03:44.012Z,3.47
2023-05-05T07:05:45.961Z,4.15
2023-05-05T07:07:57.084Z,4.05
2023-05-05T07:09:59.095Z,3.53
2023-05-05T07:12:00.954Z,3.80
2023-05-05T07:14:03.535Z,4.50
2023-05-05T07:16:06.138Z,3.72
2023-05-05T07:18:08.191Z,4.00
2023-05-05T07:20:10.867Z,3.58
2023-05-05T07:22:12.875Z,3.78
2023-05-05T07:24:14.733Z,3.50
2023-05-05T07:26:16.647Z,3.80
2023-05-05T07:28:18.440Z,3.40
2023-05-05T07:30:21.419Z,4.50
2023-05-05T07:32:23.584Z,3.92
2023-05-05T07:34:25.687Z,3.90
2023-05-05T07:36:27.992Z,3.88
2023-05-05T07:38:29.818Z,4.07
2023-05-05T07:40:32.123Z,3.93
2023-05-05T07:42:33.994Z,3.67
2023-05-05T07:44:35.999Z,3.75
2023-05-05T07:46:37.829Z,3.75
2023-05-05T07:48:41.661Z,3.70
2023-05-05T07:50:43.631Z,3.92
2023-05-05T07:52:49.897Z,4.03
2023-05-05T07:54:58.138Z,4.22
2023-05-05T07:57:00.026Z,3.60
2023-05-05T07:59:01.999Z,3.57
2023-05-05T08:01:06.534Z,3.45
2023-05-05T08:03:11.266Z,3.38
2023-05-05T08:05:13.928Z,3.80
2023-05-05T08:07:16.042Z,3.83
2023-05-05T08:09:17.882Z,4.68
2023-05-05T08:11:19.929Z,3.70
2023-05-05T08:13:21.825Z,4.43
2023-05-05T08:15:23.709Z,4.37
2023-05-05T08:17:27.151Z,4.77
2023-05-05T08:19:29.664Z,4.05
2023-05-05T08:21:31.882Z,3.95
2023-05-05T08:23:34.448Z,3.95
2023-05-05T08:25:36.383Z,4.13
2023-05-05T08:27:39.116Z,4.20
2023-05-05T08:31:42.927Z,4.90
2023-05-05T08:33:44.845Z,4.20
2023-05-05T08:35:46.651Z,4.27
2023-05-05T08:37:48.479Z,5.57
2023-05-05T08:39:50.318Z,5.07
2023-05-05T08:41:52.187Z,4.20
2023-05-05T08:43:54.055Z,4.80
2023-05-05T08:45:56.365Z,7.37
2023-05-05T08:48:03.032Z,6.82
2023-05-05T08:50:06.047Z,5.05
2023-05-05T08:52:08.109Z,4.95
2023-05-05T08:54:13.352Z,5.82
2023-05-05T08:56:17.827Z,6.18
2023-05-05T08:58:19.776Z,5.38
2023-05-05T09:00:22.056Z,5.65
2023-05-05T09:02:24.094Z,5.07
2023-05-05T09:04:26.920Z,5.55
2023-05-05T09:06:29.037Z,4.70
2023-05-05T09:08:31.162Z,4.47
2023-05-05T09:10:33.031Z,4.68
2023-05-05T09:12:34.899Z,4.10
2023-05-05T09:14:36.757Z,4.75
2023-05-05T09:16:43.173Z,5.03
2023-05-05T09:18:45.657Z,4.30
2023-05-05T09:20:47.576Z,3.92
2023-05-05T09:22:49.421Z,4.13
2023-05-05T09:24:57.664Z,3.50
2023-05-05T09:27:01.305Z,4.38
2023-05-05T09:29:03.553Z,4.00
2023-05-05T09:31:16.102Z,4.88
2023-05-05T09:33:31.255Z,4.82
2023-05-05T09:35:51.359Z,4.22
2023-05-05T09:37:53.244Z,4.68
2023-05-05T09:39:55.595Z,4.80
2023-05-05T09:41:58.617Z,4.50
2023-05-05T09:44:00.460Z,5.05
2023-05-05T09:46:08.428Z,5.13
2023-05-05T09:48:29.899Z,4.82
2023-05-05T09:50:32.723Z,4.47
2023-05-05T09:52:34.623Z,4.65
2023-05-05T09:54:36.485Z,4.32
2023-05-05T09:56:40.855Z,4.97
2023-05-05T09:58:42.714Z,4.45
2023-05-05T10:00:44.629Z,4.35
2023-05-05T10:02:46.526Z,3.92
2023-05-05T10:04:48.545Z,4.25
2023-05-05T10:06:50.526Z,4.93
2023-05-05T10:09:01.501Z,4.22
2023-05-05T10:11:07.710Z,4.68
2023-05-05T10:13:10.236Z,4.32
2023-05-05T10:15:12.267Z,4.38
2023-05-05T10:17:14.969Z,4.88
2023-05-05T10:21:21.132Z,4.57
2023-05-05T10:23:23.913Z,3.85
2023-05-05T10:25:31.274Z,4.07
2023-05-05T10:27:34.973Z,4.28
2023-05-05T10:29:42.417Z,4.30
2023-05-05T10:31:50.154Z,4.72
2023-05-05T10:34:06.268Z,3.90
2023-05-05T10:36:08.437Z,4.53
2023-05-05T10:38:10.331Z,4.22
2023-05-05T10:40:12.366Z,4.32
2023-05-05T10:42:14.187Z,4.50
2023-05-05T10:44:17.649Z,4.10
2023-05-05T10:46:19.626Z,4.30
2023-05-05T10:48:41.659Z,4.07
2023-05-05T10:50:47.941Z,3.60
2023-05-05T10:53:04.235Z,3.63
2023-05-05T10:55:21.484Z,4.20
2023-05-05T10:57:25.724Z,4.28
2023-05-05T10:59:37.040Z,3.80
2023-05-05T11:01:39.027Z,4.10
2023-05-05T11:03:41.015Z,3.80
2023-05-05T11:06:04.908Z,4.03
2023-05-05T11:08:25.300Z,4.60
2023-05-05T11:10:27.096Z,3.63
2023-05-05T11:12:29.773Z,3.97
2023-05-05T11:16:47.914Z,3.10
2023-05-05T11:18:50.040Z,3.75
2023-05-05T11:20:58.039Z,4.05
2023-05-05T11:23:02.652Z,3.70
2023-05-05T11:25:40.997Z,3.33
2023-05-05T11:28:08.380Z,4.28
2023-05-05T11:30:11.231Z,3.60
2023-05-05T11:32:14.041Z,2.90
2023-05-05T11:36:39.722Z,3.08
2023-05-05T11:38:50.888Z,4.45
2023-05-05T11:40:55.222Z,4.20
2023-05-05T11:43:07.457Z,16.42
2023-05-05T11:45:25.140Z,4.85
2023-05-05T11:47:31.101Z,5.03
2023-05-05T11:49:33.571Z,3.85
2023-05-05T11:51:35.495Z,3.65
2023-05-05T11:53:37.278Z,6.03
2023-05-05T11:55:39.120Z,3.37
2023-05-05T11:57:41.035Z,3.92
2023-05-05T11:59:55.803Z,4.45
2023-05-05T12:01:58.560Z,5.95
2023-05-05T12:06:03.662Z,6.03
2023-05-05T12:08:05.657Z,3.30
2023-05-05T12:10:08.618Z,3.35
2023-05-05T12:12:10.994Z,3.08
2023-05-05T12:14:12.860Z,4.40
2023-05-05T12:16:15.496Z,3.73
2023-05-05T12:18:21.089Z,3.55
2023-05-05T12:20:34.580Z,3.40
2023-05-05T12:22:36.689Z,3.25
2023-05-05T12:24:38.578Z,2.97
2023-05-05T12:26:40.903Z,3.37
2023-05-05T12:28:47.795Z,2.85
2023-05-05T12:30:59.937Z,2.97
2023-05-05T12:33:06.016Z,3.00
2023-05-05T12:35:08.702Z,3.05
2023-05-05T12:39:12.933Z,2.85
2023-05-05T12:41:18.996Z,2.58
2023-05-05T12:43:28.626Z,2.85
2023-05-05T12:45:30.486Z,2.97
2023-05-05T12:47:32.944Z,2.60
2023-05-05T12:49:47.639Z,2.95
2023-05-05T12:51:54.033Z,2.80
2023-05-05T12:54:23.888Z,2.50
2023-05-05T12:56:31.606Z,2.22
2023-05-05T12:58:48.765Z,2.55
2023-05-05T13:01:08.902Z,2.25
2023-05-05T13:03:20.316Z,2.30
2023-05-05T13:05:32.773Z,2.40
2023-05-05T13:07:34.637Z,2.85
2023-05-05T13:09:36.644Z,2.33
2023-05-05T13:11:38.772Z,2.30
2023-05-05T13:13:42.208Z,2.15
2023-05-05T13:15:44.126Z,2.30
2023-05-05T13:17:46.359Z,2.30
2023-05-05T13:19:48.409Z,2.20
2023-05-05T13:23:54.815Z,2.83
2023-05-05T13:25:57.748Z,2.63
2023-05-05T13:27:59.573Z,3.23
2023-05-05T13:30:01.695Z,2.28
2023-05-05T13:32:03.594Z,2.30
2023-05-05T13:34:05.429Z,2.72
2023-05-05T13:36:07.474Z,2.60
2023-05-05T13:38:09.317Z,3.00
2023-05-05T13:40:11.666Z,2.53
2023-05-05T13:42:13.551Z,2.30
2023-05-05T13:44:15.527Z,2.17
2023-05-05T13:46:20.080Z,2.75
2023-05-05T13:48:22.453Z,2.30
2023-05-05T13:50:24.336Z,2.17
2023-05-05T13:52:26.249Z,2.60
2023-05-05T13:54:28.183Z,2.53
2023-05-05T13:56:30.077Z,2.73
2023-05-05T13:58:31.977Z,2.30
2023-05-05T14:00:34.928Z,2.65
2023-05-05T14:02:36.822Z,2.35
2023-05-05T14:04:38.766Z,2.22
2023-05-05T14:06:40.578Z,2.53
2023-05-05T14:08:42.749Z,2.27
2023-05-05T14:10:46.756Z,2.22
2023-05-05T14:12:49.628Z,2.10
2023-05-05T14:14:51.631Z,2.33
2023-05-05T14:16:53.541Z,2.90
2023-05-05T14:18:55.491Z,2.45
2023-05-05T14:20:57.329Z,1.90
2023-05-05T14:22:59.202Z,2.25
2023-05-05T14:25:01.255Z,2.35
2023-05-05T14:27:06.057Z,2.72
2023-05-05T14:29:07.873Z,2.58
2023-05-05T14:31:10.228Z,2.67
2023-05-05T14:33:12.141Z,2.20
2023-05-05T14:35:14.030Z,2.28
2023-05-05T14:37:16.406Z,2.22
2023-05-05T14:39:18.265Z,2.33
2023-05-05T14:41:20.092Z,2.15
2023-05-05T14:43:22.020Z,2.40
2023-05-05T14:45:24.044Z,2.47
2023-05-05T14:47:26.205Z,2.60
2023-05-05T14:49:28.028Z,2.47
2023-05-05T14:51:29.949Z,1.90
2023-05-05T14:53:32.187Z,2.17
2023-05-05T14:55:34.104Z,2.00
2023-05-05T14:57:36.027Z,1.95
2023-05-05T14:59:37.889Z,2.63
2023-05-05T15:01:39.818Z,2.72
2023-05-05T15:03:41.835Z,1.90
2023-05-05T15:05:43.720Z,2.05
2023-05-05T15:07:45.694Z,2.20
2023-05-05T15:09:47.518Z,2.00
2023-05-05T15:11:49.376Z,2.00
2023-05-05T15:13:51.209Z,2.17
2023-05-05T15:15:53.183Z,1.80
2023-05-05T15:17:55.075Z,2.30
2023-05-05T15:19:56.967Z,2.33
2023-05-05T15:21:58.829Z,2.80
2023-05-05T15:24:00.727Z,2.33
2023-05-05T15:26:02.590Z,2.25
2023-05-05T15:28:04.462Z,2.17
2023-05-05T15:30:07.123Z,2.08
2023-05-05T15:32:09.003Z,2.25
2023-05-05T15:34:10.861Z,2.47
2023-05-05T15:36:12.851Z,2.60
2023-05-05T15:38:14.688Z,2.03
2023-05-05T15:40:16.521Z,2.00
2023-05-05T15:42:18.357Z,2.40
2023-05-05T15:44:20.332Z,2.00
2023-05-05T15:46:22.236Z,2.30
2023-05-05T15:48:24.081Z,2.30
2023-05-05T15:50:26.049Z,2.67
2023-05-05T15:52:27.903Z,3.05
2023-05-05T15:54:29.839Z,2.78
2023-05-05T15:56:31.694Z,3.20
2023-05-05T15:58:33.508Z,2.40
2023-05-05T16:00:35.368Z,2.53
2023-05-05T16:02:37.409Z,2.58
2023-05-05T16:04:39.324Z,2.05
2023-05-05T16:06:41.203Z,2.13
2023-05-05T16:08:43.131Z,2.10
2023-05-05T16:10:45.277Z,2.97
2023-05-05T16:12:47.194Z,2.55
2023-05-05T16:14:49.007Z,2.25
2023-05-05T16:16:50.894Z,2.47
2023-05-05T16:18:52.876Z,2.83
2023-05-05T16:20:54.662Z,2.40
2023-05-05T16:22:56.476Z,2.40
2023-05-05T16:24:58.375Z,2.28
2023-05-05T16:27:00.174Z,2.53
2023-05-05T16:29:01.961Z,2.60
2023-05-05T16:31:03.868Z,2.63
2023-05-05T16:33:06.898Z,2.60
2023-05-05T16:35:09.418Z,2.63
2023-05-05T16:37:12.744Z,2.60
2023-05-05T16:39:14.598Z,2.80
2023-05-05T16:41:16.493Z,2.65
2023-05-05T16:43:19.655Z,2.72
2023-05-05T16:45:21.511Z,2.63
2023-05-05T16:47:23.520Z,2.93
2023-05-05T16:49:25.493Z,2.67
2023-05-05T16:51:28.979Z,2.83
2023-05-05T16:53:30.840Z,2.80
2023-05-05T16:55:32.650Z,2.67
2023-05-05T16:57:34.477Z,3.50
2023-05-05T16:59:36.382Z,2.95
2023-05-05T17:01:38.340Z,3.20
2023-05-05T17:03:40.359Z,3.38
2023-05-05T17:05:42.655Z,2.95
2023-05-05T17:07:44.647Z,3.13
2023-05-05T17:09:46.531Z,3.22
2023-05-05T17:11:48.431Z,2.78
2023-05-05T17:13:50.376Z,2.78
2023-05-05T17:15:52.305Z,2.70
2023-05-05T17:17:54.372Z,2.60
2023-05-05T17:19:56.202Z,2.55
2023-05-05T17:21:58.063Z,2.58
2023-05-05T17:23:59.878Z,2.60
2023-05-05T17:26:03.046Z,2.93
2023-05-05T17:28:05.143Z,3.47
2023-05-05T17:30:07.692Z,3.28
2023-05-05T17:32:09.655Z,2.35
2023-05-05T17:34:11.622Z,2.88
2023-05-05T17:36:13.461Z,2.70
2023-05-05T17:38:15.673Z,2.23
2023-05-05T17:40:17.512Z,2.67
2023-05-05T17:42:22.948Z,3.00
2023-05-05T17:44:24.893Z,2.40
2023-05-05T17:46:26.777Z,2.70
2023-05-05T17:48:28.930Z,3.10
2023-05-05T17:50:30.834Z,2.78
2023-05-05T17:52:32.745Z,2.83
2023-05-05T17:54:34.593Z,2.97
2023-05-05T17:56:37.516Z,3.07
2023-05-05T17:58:39.312Z,2.88
2023-05-05T18:00:41.286Z,3.10
2023-05-05T18:02:43.205Z,2.95
2023-05-05T18:04:45.738Z,3.08
2023-05-05T18:06:47.626Z,2.97
2023-05-05T18:08:49.510Z,2.80
2023-05-05T18:10:51.365Z,2.90
2023-05-05T18:12:53.278Z,2.67
2023-05-05T18:14:55.178Z,2.92
2023-05-05T18:16:57.012Z,3.47
2023-05-05T18:18:58.872Z,3.10
2023-05-05T18:21:00.841Z,2.70
2023-05-05T18:23:02.687Z,2.63
2023-05-05T18:25:06.496Z,2.70
2023-05-05T18:27:09.713Z,2.90
2023-05-05T18:29:11.664Z,2.75
2023-05-05T18:31:13.671Z,2.72
2023-05-05T18:33:15.974Z,2.85
2023-05-05T18:35:17.966Z,2.70
2023-05-05T18:37:19.839Z,3.28
2023-05-05T18:39:21.683Z,2.85
2023-05-05T18:41:23.577Z,2.43
2023-05-05T18:43:25.507Z,3.40
2023-05-05T18:45:27.347Z,3.22
2023-05-05T18:47:29.377Z,2.37
2023-05-05T18:49:31.882Z,2.80
2023-05-05T18:51:34.440Z,3.10
2023-05-05T18:53:36.512Z,3.00
2023-05-05T18:55:38.345Z,3.25
2023-05-05T18:57:40.574Z,2.70
2023-05-05T18:59:42.462Z,2.90
2023-05-05T19:01:44.845Z,2.78
2023-05-05T19:03:48.155Z,2.80
2023-05-05T19:05:51.472Z,2.95
2023-05-05T19:07:53.578Z,3.33
2023-05-05T19:09:55.650Z,3.15
2023-05-05T19:11:57.486Z,3.00
2023-05-05T19:13:59.298Z,2.92
2023-05-05T19:16:01.247Z,3.27
2023-05-05T19:18:03.311Z,2.92
2023-05-05T19:20:05.750Z,2.50
2023-05-05T19:22:07.616Z,2.75
2023-05-05T19:24:09.813Z,3.42
2023-05-05T19:26:11.912Z,2.90
2023-05-05T19:28:13.789Z,2.85
2023-05-05T19:30:16.359Z,2.80
2023-05-05T19:32:19.572Z,2.58
2023-05-05T19:34:21.758Z,2.72
2023-05-05T19:36:23.585Z,2.78
2023-05-05T19:38:25.469Z,3.17
2023-05-05T19:40:27.320Z,2.83
2023-05-05T19:42:29.132Z,2.80
2023-05-05T19:44:30.954Z,3.10
2023-05-05T19:46:33.011Z,2.60
2023-05-05T19:48:35.023Z,2.85
2023-05-05T19:50:36.924Z,3.10
2023-05-05T19:52:41.390Z,3.38
2023-05-05T19:54:43.584Z,2.67
2023-05-05T19:56:45.443Z,3.03
2023-05-05T19:59:00.730Z,3.23
2023-05-05T20:01:02.711Z,3.00
2023-05-05T20:03:04.693Z,3.10
2023-05-05T20:05:07.025Z,3.33
2023-05-05T20:07:08.931Z,3.25
2023-05-05T20:09:10.793Z,3.38
2023-05-05T20:11:13.787Z,3.63
2023-05-05T20:13:16.248Z,3.70
2023-05-05T20:15:20.306Z,3.50
2023-05-05T20:17:22.254Z,3.40
2023-05-05T20:19:24.115Z,2.83
2023-05-05T20:21:27.263Z,3.33
2023-05-05T20:23:29.224Z,3.40
2023-05-05T20:25:31.086Z,3.45
2023-05-05T20:27:34.772Z,3.60
2023-05-05T20:29:37.934Z,3.95
2023-05-05T20:31:39.759Z,3.15
2023-05-05T20:33:41.648Z,3.70
2023-05-05T20:35:43.520Z,3.87
2023-05-05T20:37:45.828Z,3.70
2023-05-05T20:39:47.628Z,3.83
2023-05-05T20:41:49.466Z,3.27
2023-05-05T20:43:51.651Z,3.38
2023-05-05T20:45:53.495Z,3.65
2023-05-05T20:47:55.482Z,4.10
2023-05-05T20:49:57.670Z,4.13
2023-05-05T20:51:59.562Z,3.38
2023-05-05T20:54:02.243Z,3.83
2023-05-05T20:56:06.268Z,3.65
2023-05-05T20:58:08.323Z,3.08
2023-05-05T21:00:10.610Z,3.13
2023-05-05T21:02:12.857Z,3.20
2023-05-05T21:04:15.198Z,3.95
2023-05-05T21:06:20.047Z,2.92
2023-05-05T21:08:22.091Z,3.85
2023-05-05T21:10:24.060Z,3.42
2023-05-05T21:12:26.264Z,3.08
2023-05-05T21:14:29.347Z,3.65
2023-05-05T21:16:31.500Z,3.13
2023-05-05T21:18:33.384Z,3.80
2023-05-05T21:20:35.321Z,3.42
2023-05-05T21:22:37.247Z,3.65
2023-05-05T21:24:39.302Z,3.50
2023-05-05T21:26:44.703Z,3.50
2023-05-05T21:28:46.632Z,3.75
2023-05-05T21:32:57.616Z,4.25
2023-05-05T21:34:59.713Z,3.95
2023-05-05T21:37:04.626Z,3.70
2023-05-05T21:39:07.097Z,3.58
2023-05-05T21:41:09.271Z,4.15
2023-05-05T21:43:11.183Z,3.65
2023-05-05T21:45:13.468Z,4.05
2023-05-05T21:47:16.893Z,3.63
2023-05-05T21:49:18.769Z,3.88
2023-05-05T21:51:22.608Z,4.22
2023-05-05T21:53:24.460Z,3.63
2023-05-05T21:55:26.330Z,3.58
2023-05-05T21:57:28.239Z,4.40
2023-05-05T21:59:30.857Z,4.10
2023-05-05T22:01:35.761Z,4.20
2023-05-05T22:03:37.746Z,4.25
2023-05-05T22:05:40.370Z,4.20
2023-05-05T22:07:42.883Z,3.92
2023-05-05T22:09:45.849Z,4.45
2023-05-05T22:11:48.317Z,4.10
2023-05-05T22:13:50.856Z,4.95
2023-05-05T22:15:53.233Z,4.47
2023-05-05T22:17:55.172Z,4.53
2023-05-05T22:19:57.072Z,3.97
2023-05-05T22:21:59.465Z,4.15
2023-05-05T22:24:01.331Z,4.32
2023-05-05T22:26:04.889Z,4.10
2023-05-05T22:28:06.703Z,4.25
2023-05-05T22:30:11.037Z,4.43
2023-05-05T22:32:12.901Z,4.15
2023-05-05T22:34:14.792Z,4.47
2023-05-05T22:36:16.848Z,4.20
2023-05-05T22:38:18.761Z,4.32
2023-05-05T22:40:20.621Z,4.28
2023-05-05T22:42:22.468Z,5.00
2023-05-05T22:44:24.260Z,5.63
2023-05-05T22:46:26.172Z,4.67
2023-05-05T22:48:28.140Z,4.53
2023-05-05T22:50:29.977Z,4.77
2023-05-05T22:52:31.980Z,4.20
2023-05-05T22:54:33.830Z,4.72
2023-05-05T22:56:35.893Z,4.95
2023-05-05T22:58:37.734Z,5.43
2023-05-05T23:00:39.563Z,4.90
2023-05-05T23:02:41.789Z,4.83
2023-05-05T23:04:44.905Z,4.72
2023-05-05T23:06:47.013Z,4.57
2023-05-05T23:08:49.316Z,4.90
2023-05-05T23:10:51.146Z,5.35
2023-05-05T23:12:53.584Z,5.63
2023-05-05T23:14:55.799Z,4.97
2023-05-05T23:16:57.735Z,5.75
2023-05-05T23:18:59.672Z,4.63
2023-05-05T23:21:01.619Z,5.00
2023-05-05T23:23:03.490Z,5.13
2023-05-05T23:25:05.635Z,4.90
2023-05-05T23:27:07.523Z,5.18
2023-05-05T23:29:09.391Z,5.20
2023-05-05T23:31:11.225Z,5.77
2023-05-05T23:33:13.070Z,5.35
2023-05-05T23:35:15.016Z,4.78
2023-05-05T23:37:16.863Z,5.53
2023-05-05T23:39:18.700Z,5.23
2023-05-05T23:41:20.530Z,5.00
2023-05-05T23:43:22.353Z,5.03
2023-05-05T23:45:24.219Z,5.43
2023-05-05T23:47:26.053Z,5.72
2023-05-05T23:49:27.915Z,5.63
2023-05-05T23:51:29.712Z,5.80
2023-05-05T23:53:31.524Z,5.90
2023-05-05T23:55:33.369Z,5.67
2023-05-05T23:57:35.676Z,5.90
2023-05-05T23:59:37.554Z,4.85
